Las Piedras, PR (00771)

4:00 PM AST on July 31, 2015 (GMT -0400)
Aquabella | | Change Station
CLOSE
Current Station
Personal Weather Station
Location: Palmas Del Mar, HUMACAO
Elevation: 33 ft
Nearby Weather Stations

Elev 33 ft 18.09 °N, 65.80 °W | Updated 8 seconds ago

Scattered Clouds
Scattered Clouds
90.1 °F
Feels Like 104 °F
N
1.2
Wind Variable Wind from NW
Gusts 7.0 mph

Today
High -- | Low -- °F
--% Chance of Precip.
Yesterday
High -- | Low -- °F
Precip. -- in
6:01 AM 6:58 PM
Full, 100% visible
Pressure 30.00 in
Visibility 10.0 miles
Clouds Few 3200 ft
Scattered Clouds 7000 ft
Scattered Clouds 13000 ft
Heat Index 104 °F
Dew Point 77 °F
Humidity 67%
Rainfall 0.00 in
Snow Depth Not available.
UV 4 out of 12
Pollen Not available.
Air Quality Not available.
Flu Activity Not available.
METAR TJSJ 311956Z 08017G22KT 10SM FEW032 SCT070 SCT130 31/25 A3000 RMK AO2 SLP158 T03110250

More Conditions Fewer Conditions

Pressure 30.00 in
Visibility 10.0 miles
Clouds Few 3200 ft
Scattered Clouds 7000 ft
Scattered Clouds 13000 ft
Heat Index 104 °F
Dew Point 77 °F
Humidity 67%
Rainfall 0.00 in
Snow Depth Not available.
UV 4 out of 12
Pollen Not available.
Air Quality Not available.
Flu Activity Not available.
METAR TJSJ 311956Z 08017G22KT 10SM FEW032 SCT070 SCT130 31/25 A3000 RMK AO2 SLP158 T03110250

More Conditions Fewer Conditions

10-Day Weather Forecast

×

Almanac

Astronomy

Jul. 31, 2015 Rise Set
Actual Time
Civil Twilight
Nautical Twilight
Astronomical Twilight
Moon
Length of Visible Light
Length of Day
Tomorrow will be .
, % of the Moon is Illuminated

Today's Extremes

State Highs State Lows

Community

WunderPhotos

Upload Photos

1,842,727 photos uploaded!

WunderBlogs® & News

Nearby

Air Quality

  Air Quality AQ Index Pollutant
Not available.

Snow Depth

Station Depth Elevation

Earthquake Activity

City Distance Mag. Time & Date
Minimum magnitude displayed is 2.5.

Coastal Water Temperatures

Place Temperature

Stations

Nearby Weather Stations

Station Location Temp. Windchill Dew Point Humidity Wind Precip. Elev Updated Type